createdAt,value
2018-03-14T00:00:56.663Z,7.90
2018-03-14T00:03:31.276Z,7.90
2018-03-14T00:06:06.402Z,7.80
2018-03-14T00:08:41.266Z,7.90
2018-03-14T00:11:15.843Z,7.90
2018-03-14T00:13:51.275Z,7.90
2018-03-14T00:16:25.839Z,7.90
2018-03-14T00:18:59.685Z,7.90
2018-03-14T00:21:33.729Z,7.90
2018-03-14T00:24:07.634Z,7.90
2018-03-14T00:26:42.277Z,7.80
2018-03-14T00:29:16.285Z,7.80
2018-03-14T00:31:50.821Z,7.90
2018-03-14T00:34:24.969Z,7.90
2018-03-14T00:36:58.870Z,7.90
2018-03-14T00:39:32.599Z,7.90
2018-03-14T00:42:07.059Z,7.90
2018-03-14T00:44:41.350Z,7.90
2018-03-14T00:47:14.921Z,8.00
2018-03-14T00:49:48.744Z,7.90
2018-03-14T00:52:23.322Z,7.80
2018-03-14T00:54:57.679Z,7.80
2018-03-14T00:57:31.504Z,7.80
2018-03-14T01:00:05.573Z,7.80
2018-03-14T01:02:40.313Z,7.70
2018-03-14T01:05:15.508Z,7.70
2018-03-14T01:07:49.447Z,7.70
2018-03-14T01:10:24.052Z,7.70
2018-03-14T01:12:58.416Z,7.70
2018-03-14T01:15:32.094Z,7.70
2018-03-14T01:18:06.837Z,7.70
2018-03-14T01:20:40.848Z,7.70
2018-03-14T01:23:14.675Z,7.70
2018-03-14T01:25:48.661Z,7.60
2018-03-14T01:28:23.390Z,7.60
2018-03-14T01:30:57.717Z,7.50
2018-03-14T01:33:32.245Z,7.50
2018-03-14T01:36:06.512Z,7.60
2018-03-14T01:38:40.328Z,7.60
2018-03-14T01:41:14.201Z,7.60
2018-03-14T01:43:48.045Z,7.60
2018-03-14T01:46:21.872Z,7.60
2018-03-14T01:48:55.671Z,7.60
2018-03-14T01:51:29.463Z,7.50
2018-03-14T01:54:03.324Z,7.50
2018-03-14T01:56:37.041Z,7.40
2018-03-14T01:59:10.754Z,7.40
2018-03-14T02:01:44.737Z,7.40
2018-03-14T02:04:18.808Z,7.40
2018-03-14T02:06:52.974Z,7.40
2018-03-14T02:09:27.629Z,7.50
2018-03-14T02:12:01.956Z,7.40
2018-03-14T02:14:36.094Z,7.40
2018-03-14T02:17:10.019Z,7.40
2018-03-14T02:19:44.678Z,7.40
2018-03-14T02:22:18.913Z,7.40
2018-03-14T02:24:52.741Z,7.50
2018-03-14T02:27:26.674Z,7.50
2018-03-14T02:30:01.249Z,7.50
2018-03-14T02:32:35.322Z,7.50
2018-03-14T02:35:09.962Z,7.50
2018-03-14T02:37:44.035Z,7.50
2018-03-14T02:40:17.822Z,7.50
2018-03-14T02:42:52.345Z,7.50
2018-03-14T02:45:26.318Z,7.50
2018-03-14T02:48:00.727Z,7.50
2018-03-14T02:50:34.839Z,7.50
2018-03-14T02:53:08.861Z,7.50
2018-03-14T02:55:43.357Z,7.50
2018-03-14T02:58:17.658Z,7.50
2018-03-14T03:00:51.586Z,7.50
2018-03-14T03:03:26.265Z,7.50
2018-03-14T03:06:00.427Z,7.50
2018-03-14T03:08:34.143Z,7.50
2018-03-14T03:11:08.806Z,7.40
2018-03-14T03:13:42.997Z,7.40
2018-03-14T03:16:17.070Z,7.40
2018-03-14T03:18:50.982Z,7.30
2018-03-14T03:21:25.766Z,7.30
2018-03-14T03:24:00.421Z,7.30
2018-03-14T03:26:34.352Z,7.30
2018-03-14T03:29:08.214Z,7.30
2018-03-14T03:31:42.171Z,7.20
2018-03-14T03:34:16.066Z,7.20
2018-03-14T03:36:50.678Z,7.10
2018-03-14T03:39:25.398Z,7.10
2018-03-14T03:41:59.626Z,7.10
2018-03-14T03:44:33.432Z,7.10
2018-03-14T03:47:07.196Z,7.00
2018-03-14T03:49:41.255Z,7.00
2018-03-14T03:52:15.071Z,7.00
2018-03-14T03:54:48.970Z,7.00
2018-03-14T03:57:23.661Z,7.00
2018-03-14T03:59:57.878Z,7.00
2018-03-14T04:02:31.755Z,7.00
2018-03-14T04:05:06.286Z,7.00
2018-03-14T04:07:40.715Z,7.00
2018-03-14T04:10:15.561Z,7.00
2018-03-14T04:12:49.701Z,7.00
2018-03-14T04:15:24.265Z,6.90
2018-03-14T04:17:58.442Z,6.90
2018-03-14T04:20:32.166Z,7.00
2018-03-14T04:23:06.826Z,7.00
2018-03-14T04:25:41.979Z,7.00
2018-03-14T04:28:16.103Z,7.00
2018-03-14T04:30:50.196Z,7.00
2018-03-14T04:33:24.698Z,7.10
2018-03-14T04:35:59.126Z,7.00
2018-03-14T04:38:33.100Z,7.00
2018-03-14T04:41:07.106Z,7.00
2018-03-14T04:43:41.814Z,7.00
2018-03-14T04:46:15.835Z,7.20
2018-03-14T04:48:49.580Z,7.10
2018-03-14T04:51:23.305Z,7.00
2018-03-14T04:53:57.097Z,7.00
2018-03-14T04:56:31.757Z,7.00
2018-03-14T04:59:05.787Z,7.00
2018-03-14T05:01:39.809Z,7.00
2018-03-14T05:04:14.379Z,7.00
2018-03-14T05:06:48.525Z,7.00
2018-03-14T05:09:22.541Z,7.00
2018-03-14T05:11:57.210Z,7.00
2018-03-14T05:14:32.377Z,6.90
2018-03-14T05:17:06.464Z,6.90
2018-03-14T05:19:40.400Z,6.90
2018-03-14T05:22:14.178Z,6.90
2018-03-14T05:24:47.956Z,6.90
2018-03-14T05:27:21.756Z,6.90
2018-03-14T05:29:55.662Z,6.90
2018-03-14T05:32:31.302Z,6.90
2018-03-14T05:35:06.225Z,7.00
2018-03-14T05:37:40.574Z,7.00
2018-03-14T05:40:14.579Z,7.00
2018-03-14T05:42:48.732Z,7.00
2018-03-14T05:45:22.763Z,6.90
2018-03-14T05:47:56.634Z,6.90
2018-03-14T05:50:30.577Z,6.90
2018-03-14T05:53:04.326Z,6.90
2018-03-14T05:55:38.222Z,6.90
2018-03-14T05:58:13.958Z,6.90
2018-03-14T06:00:48.025Z,6.90
2018-03-14T06:03:21.981Z,7.00
2018-03-14T06:05:56.373Z,7.00
2018-03-14T06:08:30.717Z,7.00
2018-03-14T06:11:04.650Z,7.10
2018-03-14T06:13:38.383Z,7.10
2018-03-14T06:16:13.358Z,7.20
2018-03-14T06:18:47.434Z,7.20
2018-03-14T06:21:21.540Z,7.20
2018-03-14T06:23:56.204Z,7.20
2018-03-14T06:26:30.919Z,7.30
2018-03-14T06:29:05.455Z,7.30
2018-03-14T06:31:39.502Z,7.40
2018-03-14T06:34:13.269Z,7.40
2018-03-14T06:36:47.093Z,7.50
2018-03-14T06:39:20.917Z,7.50
2018-03-14T06:41:54.752Z,7.60
2018-03-14T06:44:29.199Z,7.60
2018-03-14T06:47:03.688Z,7.60
2018-03-14T06:49:37.672Z,7.70
2018-03-14T06:52:11.509Z,7.70
2018-03-14T06:54:45.438Z,7.70
2018-03-14T06:57:19.274Z,7.70
2018-03-14T07:00:05.563Z,7.70
2018-03-14T07:03:06.310Z,7.70
2018-03-14T07:05:52.484Z,7.80
2018-03-14T07:08:26.533Z,7.80
2018-03-14T07:11:00.334Z,7.90
2018-03-14T07:13:35.142Z,8.00
2018-03-14T07:16:09.165Z,7.90
2018-03-14T07:18:43.573Z,8.00
2018-03-14T07:21:18.374Z,8.00
2018-03-14T07:23:52.628Z,8.00
2018-03-14T07:26:27.032Z,8.10
2018-03-14T07:29:01.014Z,8.10
2018-03-14T07:31:34.842Z,8.10
2018-03-14T07:34:08.537Z,8.10
2018-03-14T07:36:42.356Z,8.10
2018-03-14T07:39:16.293Z,8.10
2018-03-14T07:41:50.092Z,8.10
2018-03-14T07:44:24.583Z,8.10
2018-03-14T07:46:58.504Z,8.10
2018-03-14T07:49:33.218Z,8.20
2018-03-14T07:52:07.572Z,8.20
2018-03-14T07:54:41.481Z,8.30
2018-03-14T07:57:15.793Z,8.20
2018-03-14T07:59:49.421Z,8.30
2018-03-14T08:02:23.646Z,8.40
2018-03-14T08:04:58.617Z,8.40
2018-03-14T08:07:32.834Z,8.40
2018-03-14T08:10:06.841Z,8.40
2018-03-14T08:12:40.764Z,8.50
2018-03-14T08:15:15.379Z,8.70
2018-03-14T08:17:50.024Z,8.70
2018-03-14T08:20:24.829Z,8.80
2018-03-14T08:22:58.885Z,8.80
2018-03-14T08:25:32.602Z,8.90
2018-03-14T08:28:06.557Z,8.90
2018-03-14T08:30:41.859Z,9.00
2018-03-14T08:33:16.041Z,9.00
2018-03-14T08:35:49.718Z,9.10
2018-03-14T08:38:24.340Z,9.20
2018-03-14T08:40:59.142Z,9.30
2018-03-14T08:43:34.082Z,9.30
2018-03-14T08:46:08.006Z,9.30
2018-03-14T08:48:41.734Z,9.30
2018-03-14T08:51:15.505Z,9.40
2018-03-14T08:53:49.264Z,9.60
2018-03-14T08:56:23.941Z,9.80
2018-03-14T08:58:57.953Z,9.70
2018-03-14T09:01:32.591Z,9.80
2018-03-14T09:04:06.543Z,9.80
2018-03-14T09:06:40.315Z,9.80
2018-03-14T09:09:15.047Z,10.10
2018-03-14T09:11:49.057Z,10.10
2018-03-14T09:14:23.153Z,10.30
2018-03-14T09:16:57.063Z,10.50
2018-03-14T09:19:31.968Z,10.70
2018-03-14T09:22:07.229Z,10.70
2018-03-14T09:24:41.352Z,10.70
2018-03-14T09:27:15.133Z,10.80
2018-03-14T09:29:48.845Z,10.80
2018-03-14T09:32:23.269Z,10.80
2018-03-14T09:34:58.100Z,10.70
2018-03-14T09:37:32.361Z,10.70
2018-03-14T09:40:06.036Z,10.80
2018-03-14T09:42:39.847Z,10.80
2018-03-14T09:45:13.684Z,10.90
2018-03-14T09:47:47.441Z,10.90
2018-03-14T09:50:21.229Z,11.00
2018-03-14T09:52:55.120Z,11.00
2018-03-14T09:55:29.674Z,10.90
2018-03-14T09:58:03.449Z,10.90
2018-03-14T10:00:37.323Z,10.80
2018-03-14T10:03:11.097Z,10.80
2018-03-14T10:05:45.106Z,10.70
2018-03-14T10:08:19.586Z,10.70
2018-03-14T10:10:53.860Z,10.60
2018-03-14T10:13:28.355Z,10.50
2018-03-14T10:16:02.303Z,10.50
2018-03-14T10:18:36.174Z,10.50
2018-03-14T10:21:10.018Z,10.50
2018-03-14T10:23:44.021Z,10.50
2018-03-14T10:26:18.389Z,10.50
2018-03-14T10:28:53.376Z,10.50
2018-03-14T10:31:28.763Z,10.40
2018-03-14T10:34:02.849Z,10.40
2018-03-14T10:36:36.703Z,10.40
2018-03-14T10:39:10.816Z,10.50
2018-03-14T10:41:44.942Z,10.40
2018-03-14T10:44:20.166Z,10.30
2018-03-14T10:46:54.087Z,10.30
2018-03-14T10:49:28.349Z,10.20
2018-03-14T10:52:03.258Z,10.30
2018-03-14T10:54:37.635Z,10.30
2018-03-14T10:57:12.050Z,10.50
2018-03-14T10:59:46.086Z,10.40
2018-03-14T11:02:22.772Z,10.50
2018-03-14T11:04:56.758Z,10.50
2018-03-14T11:07:31.496Z,10.60
2018-03-14T11:10:05.536Z,10.50
2018-03-14T11:12:40.091Z,10.60
2018-03-14T11:15:14.076Z,10.50
2018-03-14T11:17:47.890Z,10.60
2018-03-14T11:20:22.476Z,10.70
2018-03-14T11:22:56.484Z,10.70
2018-03-14T11:25:30.640Z,10.70
2018-03-14T11:28:05.460Z,10.70
2018-03-14T11:30:40.343Z,10.70
2018-03-14T11:33:14.506Z,10.60
2018-03-14T11:35:49.153Z,10.70
2018-03-14T11:38:23.387Z,10.70
2018-03-14T11:40:58.229Z,10.70
2018-03-14T11:43:33.085Z,10.60
2018-03-14T11:46:08.207Z,10.70
2018-03-14T11:48:42.051Z,10.70
2018-03-14T11:51:15.845Z,10.80
2018-03-14T11:53:49.547Z,10.70
2018-03-14T11:56:24.108Z,10.80
2018-03-14T11:58:58.349Z,10.80
2018-03-14T12:01:33.004Z,10.80
2018-03-14T12:04:07.806Z,10.80
2018-03-14T12:06:41.626Z,10.80
2018-03-14T12:09:16.341Z,10.90
2018-03-14T12:11:50.214Z,10.80
2018-03-14T12:14:24.039Z,10.80
2018-03-14T12:16:58.587Z,10.80
2018-03-14T12:19:32.626Z,10.80
2018-03-14T12:22:06.521Z,10.70
2018-03-14T12:24:40.202Z,10.70
2018-03-14T12:27:14.897Z,10.70
2018-03-14T12:29:50.114Z,10.60
2018-03-14T12:32:24.316Z,10.60
2018-03-14T12:34:58.597Z,10.60
2018-03-14T12:37:32.743Z,10.60
2018-03-14T12:40:07.247Z,10.70
2018-03-14T12:42:42.258Z,10.60
2018-03-14T12:45:15.886Z,10.60
2018-03-14T12:47:49.700Z,10.50
2018-03-14T12:50:23.817Z,10.40
2018-03-14T12:52:57.882Z,10.30
2018-03-14T12:55:32.338Z,10.30
2018-03-14T12:58:06.847Z,10.20
2018-03-14T13:00:40.728Z,10.20
2018-03-14T13:03:14.524Z,10.30
2018-03-14T13:05:49.154Z,10.40
2018-03-14T13:08:23.031Z,10.40
2018-03-14T13:10:56.816Z,10.50
2018-03-14T13:13:30.522Z,10.40
2018-03-14T13:16:04.082Z,10.40
2018-03-14T13:18:37.928Z,10.40
2018-03-14T13:21:12.388Z,10.40
2018-03-14T13:23:46.873Z,10.50
2018-03-14T13:26:21.493Z,10.50
2018-03-14T13:28:56.153Z,10.40
2018-03-14T13:31:30.215Z,10.40
2018-03-14T13:34:04.021Z,10.40
2018-03-14T13:36:37.925Z,10.30
2018-03-14T13:39:11.853Z,10.30
2018-03-14T13:41:47.174Z,10.40
2018-03-14T13:44:22.229Z,10.50
2018-03-14T13:46:56.349Z,10.50
2018-03-14T13:49:31.574Z,10.70
2018-03-14T13:52:06.398Z,10.70
2018-03-14T13:54:40.816Z,10.70
2018-03-14T13:57:15.263Z,10.80
2018-03-14T13:59:49.796Z,10.60
2018-03-14T14:02:24.920Z,10.60
2018-03-14T14:04:59.231Z,10.60
2018-03-14T14:07:33.677Z,10.60
2018-03-14T14:10:07.675Z,10.50
2018-03-14T14:12:41.811Z,10.50
2018-03-14T14:15:15.742Z,10.50
2018-03-14T14:17:49.488Z,10.40
2018-03-14T14:20:23.224Z,10.30
2018-03-14T14:22:57.366Z,10.30
2018-03-14T14:25:31.372Z,10.30
2018-03-14T14:28:05.246Z,10.30
2018-03-14T14:30:39.152Z,10.30
2018-03-14T14:33:13.258Z,10.30
2018-03-14T14:35:46.810Z,10.20
2018-03-14T14:38:21.302Z,10.20
2018-03-14T14:40:56.083Z,10.30
2018-03-14T14:43:30.145Z,10.20
2018-03-14T14:46:03.997Z,10.30
2018-03-14T14:48:38.713Z,10.30
2018-03-14T14:51:13.661Z,10.30
2018-03-14T14:53:47.836Z,10.30
2018-03-14T14:56:23.121Z,10.20
2018-03-14T14:58:56.936Z,10.20
2018-03-14T15:01:31.626Z,10.20
2018-03-14T15:04:06.554Z,10.20
2018-03-14T15:06:40.894Z,10.20
2018-03-14T15:09:15.995Z,10.30
2018-03-14T15:11:50.050Z,10.20
2018-03-14T15:14:23.725Z,10.20
2018-03-14T15:16:58.379Z,10.30
2018-03-14T15:19:32.892Z,10.30
2018-03-14T15:22:08.326Z,10.20
2018-03-14T15:24:42.339Z,10.20
2018-03-14T15:27:16.230Z,10.20
2018-03-14T15:29:50.219Z,10.20
2018-03-14T15:32:23.866Z,10.20
2018-03-14T15:34:57.785Z,10.20
2018-03-14T15:37:36.022Z,10.10
2018-03-14T15:40:10.213Z,10.10
2018-03-14T15:42:44.005Z,10.00
2018-03-14T15:45:18.234Z,10.10
2018-03-14T15:47:52.437Z,10.10
2018-03-14T15:50:26.601Z,10.10
2018-03-14T15:53:00.778Z,10.00
2018-03-14T15:55:34.947Z,10.00
2018-03-14T15:58:08.878Z,9.90
2018-03-14T16:00:43.113Z,9.80
2018-03-14T16:03:18.052Z,9.40
2018-03-14T16:05:52.160Z,9.40
2018-03-14T16:08:26.103Z,9.20
2018-03-14T16:11:00.735Z,9.10
2018-03-14T16:13:34.775Z,9.10
2018-03-14T16:16:09.389Z,9.10
2018-03-14T16:18:43.745Z,9.10
2018-03-14T16:21:17.416Z,9.10
2018-03-14T16:23:51.221Z,9.10
2018-03-14T16:26:26.069Z,8.90
2018-03-14T16:29:00.279Z,8.90
2018-03-14T16:31:34.329Z,8.70
2018-03-14T16:34:08.907Z,8.70
2018-03-14T16:36:42.656Z,8.70
2018-03-14T16:39:16.715Z,8.60
2018-03-14T16:41:51.637Z,8.60
2018-03-14T16:44:26.105Z,8.60
2018-03-14T16:47:01.095Z,8.40
2018-03-14T16:49:36.275Z,8.40
2018-03-14T16:52:11.393Z,8.50
2018-03-14T16:54:45.922Z,8.50
2018-03-14T16:57:21.035Z,8.60
2018-03-14T16:59:56.199Z,8.60
2018-03-14T17:02:30.683Z,8.50
2018-03-14T17:05:06.054Z,8.50
2018-03-14T17:07:41.182Z,8.40
2018-03-14T17:10:15.578Z,8.40
2018-03-14T17:12:50.107Z,8.40
2018-03-14T17:15:23.840Z,8.40
2018-03-14T17:17:57.890Z,8.40
2018-03-14T17:20:32.442Z,8.30
2018-03-14T17:23:06.631Z,8.40
2018-03-14T17:25:40.487Z,8.30
2018-03-14T17:28:14.446Z,8.30
2018-03-14T17:30:48.548Z,8.20
2018-03-14T17:33:23.349Z,8.20
2018-03-14T17:35:57.377Z,8.20
2018-03-14T17:38:31.350Z,8.20
2018-03-14T17:41:06.094Z,8.20
2018-03-14T17:43:40.115Z,8.10
2018-03-14T17:46:15.750Z,8.00
2018-03-14T17:48:49.505Z,8.00
2018-03-14T17:51:23.575Z,8.00
2018-03-14T17:53:57.825Z,8.00
2018-03-14T17:56:32.566Z,8.00
2018-03-14T17:59:07.113Z,7.90
2018-03-14T18:01:41.141Z,7.90
2018-03-14T18:04:15.300Z,7.80
2018-03-14T18:06:51.095Z,7.80
2018-03-14T18:09:25.555Z,7.70
2018-03-14T18:11:59.982Z,7.70
2018-03-14T18:14:33.878Z,7.70
2018-03-14T18:17:07.999Z,7.60
2018-03-14T18:19:41.661Z,7.60
2018-03-14T18:22:16.464Z,7.60
2018-03-14T18:24:50.335Z,7.60
2018-03-14T18:27:24.203Z,7.70
2018-03-14T18:29:57.822Z,7.70
2018-03-14T18:32:31.881Z,7.70
2018-03-14T18:35:05.594Z,7.70
2018-03-14T18:37:39.434Z,7.70
2018-03-14T18:40:13.373Z,7.60
2018-03-14T18:42:47.504Z,7.60
2018-03-14T18:45:21.972Z,7.60
2018-03-14T18:47:56.167Z,7.60
2018-03-14T18:50:29.929Z,7.60
2018-03-14T18:53:04.801Z,7.70
2018-03-14T18:55:39.395Z,7.60
2018-03-14T18:58:13.371Z,7.60
2018-03-14T19:00:47.238Z,7.60
2018-03-14T19:03:21.828Z,7.60
2018-03-14T19:05:56.039Z,7.60
2018-03-14T19:08:30.441Z,7.60
2018-03-14T19:11:04.496Z,7.60
2018-03-14T19:13:38.992Z,7.60
2018-03-14T19:16:14.732Z,7.60
2018-03-14T19:18:48.951Z,7.60
2018-03-14T19:21:22.891Z,7.60
2018-03-14T19:23:56.731Z,7.60
2018-03-14T19:26:30.776Z,7.40
2018-03-14T19:29:05.359Z,7.40
2018-03-14T19:31:39.279Z,7.40
2018-03-14T19:34:13.017Z,7.30
2018-03-14T19:36:47.754Z,7.30
2018-03-14T19:39:21.778Z,7.30
2018-03-14T19:41:56.276Z,7.30
2018-03-14T19:44:30.368Z,7.30
2018-03-14T19:47:04.043Z,7.30
2018-03-14T19:49:37.729Z,7.30
2018-03-14T19:52:11.560Z,7.30
2018-03-14T19:54:46.105Z,7.30
2018-03-14T19:57:20.048Z,7.30
2018-03-14T19:59:54.128Z,7.30
2018-03-14T20:02:29.613Z,7.30
2018-03-14T20:05:03.870Z,7.30
2018-03-14T20:07:37.467Z,7.30
2018-03-14T20:10:12.013Z,7.30
2018-03-14T20:12:46.712Z,7.30
2018-03-14T20:15:20.945Z,7.30
2018-03-14T20:17:56.300Z,7.20
2018-03-14T20:20:30.240Z,7.20
2018-03-14T20:23:03.886Z,7.10
2018-03-14T20:25:37.717Z,7.10
2018-03-14T20:28:11.466Z,7.00
2018-03-14T20:30:45.278Z,7.00
2018-03-14T20:33:19.109Z,7.00
2018-03-14T20:35:52.846Z,7.00
2018-03-14T20:38:27.281Z,7.00
2018-03-14T20:41:01.669Z,6.90
2018-03-14T20:43:35.846Z,6.90
2018-03-14T20:46:09.825Z,6.80
2018-03-14T20:48:43.727Z,6.70
2018-03-14T20:51:17.465Z,6.70
2018-03-14T20:53:51.941Z,6.60
2018-03-14T20:56:25.928Z,6.50
2018-03-14T20:59:00.494Z,6.40
2018-03-14T21:01:34.627Z,6.40
2018-03-14T21:04:09.321Z,6.30
2018-03-14T21:06:45.194Z,6.10
2018-03-14T21:09:20.266Z,6.10
2018-03-14T21:11:54.675Z,6.00
2018-03-14T21:14:29.208Z,6.00
2018-03-14T21:17:03.877Z,5.90
2018-03-14T21:19:38.109Z,5.90
2018-03-14T21:22:12.528Z,5.90
2018-03-14T21:24:46.994Z,5.80
2018-03-14T21:27:21.088Z,5.70
2018-03-14T21:29:54.862Z,5.70
2018-03-14T21:32:28.913Z,5.70
2018-03-14T21:35:02.616Z,5.60
2018-03-14T21:37:36.710Z,5.60
2018-03-14T21:40:10.705Z,5.60
2018-03-14T21:42:45.248Z,5.50
2018-03-14T21:45:19.112Z,5.50
2018-03-14T21:47:53.796Z,5.40
2018-03-14T21:50:27.840Z,5.40
2018-03-14T21:53:01.831Z,5.40
2018-03-14T21:55:39.318Z,5.30
2018-03-14T21:58:13.592Z,5.30
2018-03-14T22:00:47.966Z,5.30
2018-03-14T22:03:22.133Z,5.30
2018-03-14T22:05:55.929Z,5.20
2018-03-14T22:08:30.453Z,5.20
2018-03-14T22:11:04.425Z,5.20
2018-03-14T22:13:38.224Z,5.20
2018-03-14T22:16:12.371Z,5.20
2018-03-14T22:18:46.558Z,5.20
2018-03-14T22:21:22.146Z,5.20
2018-03-14T22:23:55.842Z,5.20
2018-03-14T22:26:29.714Z,5.10
2018-03-14T22:29:03.929Z,5.10
2018-03-14T22:31:38.710Z,5.20
2018-03-14T22:34:13.226Z,5.10
2018-03-14T22:36:48.366Z,5.00
2018-03-14T22:39:23.171Z,5.00
2018-03-14T22:41:57.306Z,5.00
2018-03-14T22:44:31.074Z,5.00
2018-03-14T22:47:05.019Z,5.00
2018-03-14T22:49:39.039Z,5.00
2018-03-14T22:52:13.393Z,5.00
2018-03-14T22:54:47.365Z,5.00
2018-03-14T22:57:21.163Z,4.90
2018-03-14T22:59:54.949Z,4.90
2018-03-14T23:02:28.943Z,4.90
2018-03-14T23:05:02.649Z,4.90
2018-03-14T23:07:37.412Z,4.80
2018-03-14T23:10:11.534Z,4.80
2018-03-14T23:12:46.889Z,4.80
2018-03-14T23:15:20.854Z,4.80
2018-03-14T23:17:55.013Z,4.80
2018-03-14T23:20:30.324Z,4.70
2018-03-14T23:23:04.173Z,4.70
2018-03-14T23:25:38.636Z,4.70
2018-03-14T23:28:12.862Z,4.70
2018-03-14T23:30:46.742Z,4.70
2018-03-14T23:33:20.694Z,4.60
2018-03-14T23:35:54.493Z,4.60
2018-03-14T23:38:28.322Z,4.60
2018-03-14T23:41:02.387Z,4.50
2018-03-14T23:43:37.293Z,4.50
2018-03-14T23:46:11.365Z,4.50
2018-03-14T23:48:45.108Z,4.50
2018-03-14T23:51:18.733Z,4.50
2018-03-14T23:53:52.527Z,4.50
2018-03-14T23:56:26.175Z,4.40
2018-03-14T23:58:59.995Z,4.40
